createdAt,value
2022-12-25T00:02:03.931Z,2.43
2022-12-25T00:04:30.928Z,2.40
2022-12-25T00:06:57.751Z,2.21
2022-12-25T00:09:24.761Z,2.32
2022-12-25T00:11:51.601Z,2.40
2022-12-25T00:14:18.515Z,2.25
2022-12-25T00:16:45.507Z,2.11
2022-12-25T00:19:12.430Z,2.06
2022-12-25T00:21:39.363Z,1.73
2022-12-25T00:24:06.778Z,1.60
2022-12-25T00:26:33.628Z,1.77
2022-12-25T00:29:00.593Z,1.96
2022-12-25T00:31:28.056Z,1.97
2022-12-25T00:33:54.938Z,1.82
2022-12-25T00:36:23.169Z,1.85
2022-12-25T00:38:50.319Z,2.01
2022-12-25T00:41:20.287Z,2.07
2022-12-25T00:43:47.171Z,2.11
2022-12-25T00:46:14.211Z,2.03
2022-12-25T00:48:41.463Z,1.95
2022-12-25T00:51:11.808Z,1.78
2022-12-25T00:53:39.056Z,1.82
2022-12-25T00:56:07.415Z,1.90
2022-12-25T00:58:35.206Z,2.04
2022-12-25T01:01:02.305Z,1.78
2022-12-25T01:03:29.555Z,1.50
2022-12-25T01:06:01.151Z,1.58
2022-12-25T01:08:30.838Z,1.64
2022-12-25T01:11:04.100Z,1.82
2022-12-25T01:13:31.499Z,2.00
2022-12-25T01:15:58.387Z,1.85
2022-12-25T01:18:25.748Z,1.84
2022-12-25T01:20:52.756Z,1.82
2022-12-25T01:23:19.678Z,1.72
2022-12-25T01:25:46.587Z,1.74
2022-12-25T01:28:13.615Z,1.64
2022-12-25T01:30:40.528Z,1.62
2022-12-25T01:33:07.477Z,1.62
2022-12-25T01:35:34.280Z,1.63
2022-12-25T01:38:01.255Z,1.57
2022-12-25T01:40:28.296Z,1.56
2022-12-25T01:42:55.253Z,1.58
2022-12-25T01:45:28.415Z,1.49
2022-12-25T01:47:55.236Z,1.63
2022-12-25T01:50:22.935Z,1.57
2022-12-25T01:52:51.024Z,1.62
2022-12-25T01:55:18.350Z,1.57
2022-12-25T01:57:45.712Z,1.55
2022-12-25T02:00:13.757Z,1.50
2022-12-25T02:02:41.626Z,1.40
2022-12-25T02:05:17.065Z,1.38
2022-12-25T02:07:44.745Z,1.29
2022-12-25T02:10:12.143Z,1.25
2022-12-25T02:12:41.676Z,1.31
2022-12-25T02:15:12.062Z,1.26
2022-12-25T02:17:53.211Z,1.28
2022-12-25T02:20:33.802Z,1.20
2022-12-25T02:23:25.600Z,1.14
2022-12-25T02:26:14.692Z,1.20
2022-12-25T02:29:03.018Z,1.13
2022-12-25T02:31:44.204Z,1.11
2022-12-25T02:34:53.271Z,1.10
2022-12-25T02:37:37.089Z,0.98
2022-12-25T02:40:10.515Z,0.95
2022-12-25T02:42:59.362Z,0.92
2022-12-25T02:45:29.946Z,0.87
2022-12-25T02:47:57.657Z,0.91
2022-12-25T02:50:26.445Z,0.91
2022-12-25T02:52:58.046Z,0.81
2022-12-25T02:55:32.573Z,0.72
2022-12-25T02:58:04.643Z,0.70
2022-12-25T03:00:35.163Z,0.75
2022-12-25T03:03:05.735Z,0.66
2022-12-25T03:05:35.629Z,0.71
2022-12-25T03:08:07.156Z,0.75
2022-12-25T03:10:37.821Z,0.79
2022-12-25T03:13:12.757Z,0.68
2022-12-25T03:15:39.766Z,0.75
2022-12-25T03:18:12.466Z,0.79
2022-12-25T03:20:39.514Z,0.73
2022-12-25T03:23:07.869Z,0.76
2022-12-25T03:25:34.855Z,0.92
2022-12-25T03:28:02.984Z,0.84
2022-12-25T03:30:48.685Z,0.89
2022-12-25T03:33:48.688Z,0.98
2022-12-25T03:36:30.607Z,0.95
2022-12-25T03:38:57.478Z,0.92
2022-12-25T03:41:43.317Z,0.87
2022-12-25T03:44:17.943Z,0.90
2022-12-25T03:46:49.041Z,0.96
2022-12-25T03:49:25.212Z,0.96
2022-12-25T03:51:57.333Z,0.94
2022-12-25T03:54:29.181Z,0.88
2022-12-25T03:56:57.176Z,0.78
2022-12-25T03:59:25.222Z,0.68
2022-12-25T04:01:52.495Z,0.66
2022-12-25T04:04:19.493Z,0.64
2022-12-25T04:06:46.406Z,0.63
2022-12-25T04:09:13.572Z,0.64
2022-12-25T04:11:40.413Z,0.66
2022-12-25T04:14:07.342Z,0.67
2022-12-25T04:16:34.397Z,0.59
2022-12-25T04:19:01.197Z,0.74
2022-12-25T04:21:28.197Z,0.80
2022-12-25T04:23:55.064Z,0.85
2022-12-25T04:26:22.189Z,0.77
2022-12-25T04:28:49.072Z,0.91
2022-12-25T04:31:16.053Z,0.92
2022-12-25T04:33:42.868Z,0.89
2022-12-25T04:36:09.782Z,0.92
2022-12-25T04:38:37.787Z,0.94
2022-12-25T04:41:05.052Z,0.98
2022-12-25T04:43:32.187Z,0.93
2022-12-25T04:46:01.734Z,0.99
2022-12-25T04:48:31.298Z,1.07
2022-12-25T04:50:58.481Z,1.15
2022-12-25T04:53:25.328Z,1.34
2022-12-25T04:56:01.573Z,1.29
2022-12-25T04:58:28.615Z,1.22
2022-12-25T05:01:00.083Z,1.18
2022-12-25T05:03:27.423Z,1.04
2022-12-25T05:05:54.366Z,1.10
2022-12-25T05:08:22.140Z,1.13
2022-12-25T05:10:49.604Z,1.06
2022-12-25T05:13:16.605Z,0.99
2022-12-25T05:15:44.437Z,0.92
2022-12-25T05:18:11.419Z,0.92
2022-12-25T05:20:40.225Z,0.88
2022-12-25T05:23:09.527Z,0.50
2022-12-25T05:25:39.954Z,0.40
2022-12-25T05:28:07.656Z,0.39
2022-12-25T05:30:35.345Z,0.40
2022-12-25T05:33:03.198Z,0.36
2022-12-25T05:35:30.202Z,0.44
2022-12-25T05:37:57.127Z,0.58
2022-12-25T05:40:24.570Z,0.52
2022-12-25T05:42:51.552Z,0.46
2022-12-25T05:45:18.570Z,0.41
2022-12-25T05:47:45.439Z,0.44
2022-12-25T05:50:12.429Z,0.45
2022-12-25T05:52:39.503Z,0.46
2022-12-25T05:55:06.745Z,0.56
2022-12-25T05:57:33.713Z,0.54
2022-12-25T06:00:00.688Z,0.55
2022-12-25T06:02:28.345Z,0.53
2022-12-25T06:04:55.464Z,0.60
2022-12-25T06:07:22.359Z,0.66
2022-12-25T06:09:49.249Z,0.79
2022-12-25T06:12:16.248Z,0.81
2022-12-25T06:14:43.127Z,0.76
2022-12-25T06:17:10.049Z,0.59
2022-12-25T06:19:36.953Z,0.47
2022-12-25T06:22:04.050Z,0.56
2022-12-25T06:24:31.078Z,0.78
2022-12-25T06:26:58.026Z,0.89
2022-12-25T06:29:25.006Z,1.07
2022-12-25T06:31:52.004Z,1.20
2022-12-25T06:34:18.957Z,1.37
2022-12-25T06:36:45.976Z,1.64
2022-12-25T06:39:12.944Z,1.80
2022-12-25T06:41:39.916Z,1.94
2022-12-25T06:44:06.787Z,2.02
2022-12-25T06:46:33.769Z,2.06
2022-12-25T06:49:01.225Z,2.21
2022-12-25T06:51:30.916Z,2.40
2022-12-25T06:53:59.648Z,2.40
2022-12-25T06:56:28.497Z,2.53
2022-12-25T06:59:00.851Z,2.71
2022-12-25T07:01:35.502Z,2.89
2022-12-25T07:04:11.529Z,2.97
2022-12-25T07:06:38.496Z,2.54
2022-12-25T07:09:05.315Z,2.26
2022-12-25T07:11:32.825Z,2.35
2022-12-25T07:13:59.628Z,2.40
2022-12-25T07:16:26.570Z,2.54
2022-12-25T07:18:53.518Z,2.52
2022-12-25T07:21:21.506Z,2.38
2022-12-25T07:23:50.275Z,2.41
2022-12-25T07:26:17.507Z,2.56
2022-12-25T07:28:44.873Z,2.62
2022-12-25T07:31:15.083Z,2.63
2022-12-25T07:33:42.480Z,2.63
2022-12-25T07:36:12.884Z,2.61
2022-12-25T07:38:44.075Z,2.71
2022-12-25T07:41:12.274Z,2.76
2022-12-25T07:43:39.122Z,2.70
2022-12-25T07:46:06.259Z,2.44
2022-12-25T07:48:33.354Z,2.28
2022-12-25T07:51:05.689Z,2.41
2022-12-25T07:53:33.037Z,2.50
2022-12-25T07:56:08.573Z,2.34
2022-12-25T07:58:35.486Z,2.42
2022-12-25T08:01:27.027Z,2.66
2022-12-25T08:03:57.549Z,2.72
2022-12-25T08:06:27.137Z,2.50
2022-12-25T08:08:54.103Z,2.31
2022-12-25T08:11:21.100Z,2.22
2022-12-25T08:13:47.984Z,2.17
2022-12-25T08:16:14.869Z,2.11
2022-12-25T08:18:41.793Z,2.17
2022-12-25T08:21:14.578Z,2.39
2022-12-25T08:23:46.911Z,2.41
2022-12-25T08:26:20.285Z,2.51
2022-12-25T08:28:48.504Z,2.70
2022-12-25T08:31:23.324Z,2.82
2022-12-25T08:33:53.274Z,2.99
2022-12-25T08:36:20.760Z,3.29
2022-12-25T08:38:48.013Z,3.40
2022-12-25T08:41:15.825Z,3.38
2022-12-25T08:43:43.706Z,3.57
2022-12-25T08:46:13.607Z,3.70
2022-12-25T08:48:45.370Z,3.10
2022-12-25T08:51:13.971Z,2.91
2022-12-25T08:53:45.523Z,3.10
2022-12-25T08:56:16.057Z,3.08
2022-12-25T08:58:46.373Z,3.26
2022-12-25T09:01:13.849Z,3.20
2022-12-25T09:03:43.983Z,3.06
2022-12-25T09:06:15.600Z,3.21
2022-12-25T09:08:48.777Z,3.34
2022-12-25T09:11:18.930Z,3.40
2022-12-25T09:13:49.074Z,3.36
2022-12-25T09:16:21.573Z,3.23
2022-12-25T09:18:49.094Z,2.95
2022-12-25T09:21:16.928Z,2.92
2022-12-25T09:23:44.184Z,2.98
2022-12-25T09:26:15.050Z,3.17
2022-12-25T09:28:48.513Z,3.43
2022-12-25T09:31:18.407Z,3.45
2022-12-25T09:33:45.534Z,3.37
2022-12-25T09:36:12.764Z,3.20
2022-12-25T09:38:42.558Z,2.98
2022-12-25T09:41:16.191Z,3.13
2022-12-25T09:43:50.339Z,3.08
2022-12-25T09:46:25.191Z,3.03
2022-12-25T09:49:14.018Z,3.03
2022-12-25T09:51:43.969Z,3.05
2022-12-25T09:54:22.451Z,3.09
2022-12-25T09:56:49.358Z,3.09
2022-12-25T09:59:23.177Z,3.00
2022-12-25T10:02:23.465Z,2.93
2022-12-25T10:05:05.592Z,2.89
2022-12-25T10:07:58.447Z,2.99
2022-12-25T10:10:46.692Z,2.94
2022-12-25T10:13:28.635Z,2.94
2022-12-25T10:16:30.113Z,2.93
2022-12-25T10:19:06.802Z,3.13
2022-12-25T10:21:34.120Z,3.38
2022-12-25T10:24:20.016Z,3.44
2022-12-25T10:26:48.840Z,3.59
2022-12-25T10:29:18.581Z,3.65
2022-12-25T10:31:55.122Z,3.18
2022-12-25T10:34:23.370Z,3.39
2022-12-25T10:36:51.199Z,3.19
2022-12-25T10:39:28.956Z,3.15
2022-12-25T10:42:10.781Z,3.38
2022-12-25T10:44:37.942Z,3.40
2022-12-25T10:47:05.572Z,3.21
2022-12-25T10:49:36.946Z,2.99
2022-12-25T10:52:18.491Z,3.00
2022-12-25T10:54:45.420Z,3.10
2022-12-25T10:57:18.364Z,3.16
2022-12-25T10:59:47.616Z,3.08
2022-12-25T11:02:19.451Z,3.00
2022-12-25T11:04:46.690Z,2.91
2022-12-25T11:07:15.639Z,2.90
2022-12-25T11:09:53.944Z,2.98
2022-12-25T11:12:35.129Z,2.87
2022-12-25T11:15:06.937Z,2.72
2022-12-25T11:17:36.147Z,2.67
2022-12-25T11:20:03.283Z,2.58
2022-12-25T11:22:30.436Z,2.48
2022-12-25T11:24:57.473Z,2.55
2022-12-25T11:27:27.848Z,2.63
2022-12-25T11:30:05.838Z,2.66
2022-12-25T11:32:52.147Z,2.75
2022-12-25T11:35:19.263Z,2.80
2022-12-25T11:37:49.707Z,2.89
2022-12-25T11:40:20.970Z,2.92
2022-12-25T11:42:55.414Z,3.05
2022-12-25T11:45:33.515Z,3.14
2022-12-25T11:48:10.022Z,3.24
2022-12-25T11:50:42.394Z,3.13
2022-12-25T11:53:29.299Z,3.22
2022-12-25T11:56:07.329Z,3.43
2022-12-25T11:58:41.188Z,3.63
2022-12-25T12:01:43.879Z,3.88
2022-12-25T12:04:27.435Z,3.98
2022-12-25T12:06:56.453Z,3.97
2022-12-25T12:09:41.732Z,4.05
2022-12-25T12:13:03.128Z,3.83
2022-12-25T12:15:41.747Z,3.74
2022-12-25T12:18:18.913Z,3.82
2022-12-25T12:20:46.637Z,3.54
2022-12-25T12:23:17.188Z,3.36
2022-12-25T12:25:45.239Z,3.64
2022-12-25T12:28:26.442Z,3.64
2022-12-25T12:31:00.396Z,3.72
2022-12-25T12:33:32.454Z,3.80
2022-12-25T12:36:01.556Z,3.78
2022-12-25T12:38:29.298Z,3.80
2022-12-25T12:41:02.022Z,3.96
2022-12-25T12:43:36.507Z,3.31
2022-12-25T12:46:08.658Z,3.34
2022-12-25T12:48:41.948Z,3.18
2022-12-25T12:51:34.431Z,3.22
2022-12-25T12:54:26.797Z,3.11
2022-12-25T12:57:02.425Z,2.98
2022-12-25T12:59:38.533Z,2.99
2022-12-25T13:02:47.932Z,2.78
2022-12-25T13:05:33.966Z,2.69
2022-12-25T13:08:31.729Z,2.74
2022-12-25T13:11:20.561Z,2.68
2022-12-25T13:13:50.022Z,2.55
2022-12-25T13:16:29.202Z,2.55
2022-12-25T13:18:56.939Z,2.57
2022-12-25T13:21:31.376Z,2.62
2022-12-25T13:23:59.526Z,2.62
2022-12-25T13:26:27.251Z,2.57
2022-12-25T13:28:54.364Z,2.50
2022-12-25T13:31:24.358Z,2.53
2022-12-25T13:34:17.125Z,2.73
2022-12-25T13:36:44.261Z,3.03
2022-12-25T13:39:17.322Z,3.22
2022-12-25T13:41:53.117Z,3.34
2022-12-25T13:44:24.161Z,3.42
2022-12-25T13:46:51.069Z,3.53
2022-12-25T13:49:24.248Z,3.48
2022-12-25T13:51:51.748Z,3.55
2022-12-25T13:54:19.130Z,3.24
2022-12-25T13:56:52.254Z,3.39
2022-12-25T13:59:22.141Z,3.57
2022-12-25T14:01:50.434Z,3.30
2022-12-25T14:04:21.796Z,2.91
2022-12-25T14:06:49.901Z,2.96
2022-12-25T14:09:17.384Z,2.90
2022-12-25T14:11:49.466Z,2.73
2022-12-25T14:14:23.060Z,2.39
2022-12-25T14:16:52.075Z,2.23
2022-12-25T14:19:33.996Z,2.33
2022-12-25T14:22:12.378Z,2.54
2022-12-25T14:24:40.666Z,2.66
2022-12-25T14:27:25.848Z,2.79
2022-12-25T14:29:56.895Z,2.70
2022-12-25T14:32:30.638Z,2.78
2022-12-25T14:35:00.650Z,2.88
2022-12-25T14:37:31.259Z,2.66
2022-12-25T14:40:24.612Z,2.79
2022-12-25T14:43:00.395Z,2.75
2022-12-25T14:45:30.235Z,2.91
2022-12-25T14:48:03.701Z,2.81
2022-12-25T14:50:30.497Z,2.44
2022-12-25T14:52:59.130Z,2.19
2022-12-25T14:55:30.622Z,2.04
2022-12-25T14:58:04.036Z,1.95
2022-12-25T15:00:34.606Z,1.97
2022-12-25T15:03:03.718Z,1.89
2022-12-25T15:05:37.254Z,1.87
2022-12-25T15:08:10.057Z,1.90
2022-12-25T15:13:26.253Z,2.04
2022-12-25T15:16:01.611Z,2.14
2022-12-25T15:18:34.613Z,2.19
2022-12-25T15:21:01.647Z,2.31
2022-12-25T15:23:28.825Z,2.48
2022-12-25T15:25:55.862Z,2.54
2022-12-25T15:28:22.684Z,2.44
2022-12-25T15:30:50.074Z,2.60
2022-12-25T15:33:18.661Z,2.80
2022-12-25T15:35:45.872Z,2.86
2022-12-25T15:38:13.736Z,2.96
2022-12-25T15:40:41.696Z,3.12
2022-12-25T15:43:38.996Z,3.19
2022-12-25T15:45:59.275Z,3.29
2022-12-25T15:48:26.124Z,3.37
2022-12-25T15:50:53.040Z,3.33
2022-12-25T15:53:19.876Z,3.36
2022-12-25T15:55:46.736Z,3.41
2022-12-25T15:58:13.618Z,3.43
2022-12-25T16:00:40.460Z,3.49
2022-12-25T16:03:07.625Z,3.42
2022-12-25T16:05:34.730Z,3.16
2022-12-25T16:08:01.636Z,3.05
2022-12-25T16:10:33.427Z,3.03
2022-12-25T16:13:03.544Z,3.03
2022-12-25T16:15:30.466Z,3.17
2022-12-25T16:17:57.375Z,3.34
2022-12-25T16:20:24.258Z,3.23
2022-12-25T16:22:51.153Z,3.14
2022-12-25T16:25:19.489Z,3.24
2022-12-25T16:27:46.922Z,3.17
2022-12-25T16:30:16.823Z,3.16
2022-12-25T16:32:44.604Z,3.16
2022-12-25T16:35:12.341Z,3.28
2022-12-25T16:37:39.668Z,3.30
2022-12-25T16:40:10.538Z,3.33
2022-12-25T16:42:38.578Z,3.41
2022-12-25T16:45:06.484Z,3.47
2022-12-25T16:47:33.410Z,3.54
2022-12-25T16:50:00.504Z,3.55
2022-12-25T16:52:27.540Z,3.62
2022-12-25T16:54:54.472Z,3.68
2022-12-25T16:57:21.259Z,3.69
2022-12-25T16:59:48.171Z,3.63
2022-12-25T17:02:17.560Z,3.65
2022-12-25T17:04:45.767Z,3.78
2022-12-25T17:07:14.212Z,3.89
2022-12-25T17:09:44.327Z,3.80
2022-12-25T17:12:11.647Z,3.66
2022-12-25T17:14:38.632Z,3.37
2022-12-25T17:17:05.759Z,3.22
2022-12-25T17:19:32.640Z,2.67
2022-12-25T17:21:59.677Z,2.28
2022-12-25T17:24:27.568Z,2.23
2022-12-25T17:26:54.675Z,2.05
2022-12-25T17:29:22.567Z,2.06
2022-12-25T17:31:50.227Z,2.17
2022-12-25T17:34:17.198Z,2.33
2022-12-25T17:36:44.119Z,2.42
2022-12-25T17:39:11.548Z,2.64
2022-12-25T17:41:38.515Z,2.76
2022-12-25T17:44:05.733Z,2.97
2022-12-25T17:46:32.902Z,3.07
2022-12-25T17:49:01.022Z,3.13
2022-12-25T17:51:30.467Z,3.23
2022-12-25T17:54:00.229Z,3.36
2022-12-25T17:56:27.136Z,3.44
2022-12-25T17:58:57.596Z,3.27
2022-12-25T18:01:25.827Z,2.77
2022-12-25T18:03:53.751Z,2.89
2022-12-25T18:06:22.907Z,2.91
2022-12-25T18:08:57.327Z,2.65
2022-12-25T18:11:27.668Z,2.87
2022-12-25T18:13:55.831Z,2.83
2022-12-25T18:16:24.886Z,2.88
2022-12-25T18:18:53.082Z,2.66
2022-12-25T18:21:22.033Z,2.23
2022-12-25T18:23:49.902Z,2.24
2022-12-25T18:26:17.527Z,2.42
2022-12-25T18:28:44.407Z,2.51
2022-12-25T18:31:15.967Z,2.65
2022-12-25T18:33:43.388Z,2.47
2022-12-25T18:36:15.475Z,1.89
2022-12-25T18:38:43.347Z,1.73
2022-12-25T18:41:11.167Z,1.92
2022-12-25T18:43:52.456Z,1.83
2022-12-25T18:46:26.711Z,1.71
2022-12-25T18:48:56.608Z,1.78
2022-12-25T18:51:23.780Z,1.59
2022-12-25T18:53:50.970Z,1.50
2022-12-25T18:56:18.573Z,1.49
2022-12-25T18:58:47.026Z,1.47
2022-12-25T19:01:19.703Z,1.62
2022-12-25T19:03:47.077Z,1.81
2022-12-25T19:06:22.335Z,1.94
2022-12-25T19:08:49.434Z,2.01
2022-12-25T19:11:17.156Z,2.17
2022-12-25T19:13:44.281Z,2.28
2022-12-25T19:16:11.331Z,2.34
2022-12-25T19:18:39.004Z,2.37
2022-12-25T19:21:07.740Z,2.32
2022-12-25T19:23:44.036Z,2.35
2022-12-25T19:26:12.354Z,2.35
2022-12-25T19:28:40.097Z,2.41
2022-12-25T19:31:08.695Z,2.37
2022-12-25T19:33:37.611Z,2.30
2022-12-25T19:36:14.341Z,2.34
2022-12-25T19:38:42.092Z,2.42
2022-12-25T19:41:11.623Z,2.45
2022-12-25T19:43:40.707Z,2.51
2022-12-25T19:46:10.828Z,2.60
2022-12-25T19:48:37.779Z,2.72
2022-12-25T19:51:04.757Z,2.71
2022-12-25T19:53:31.713Z,2.85
2022-12-25T19:56:02.091Z,2.80
2022-12-25T19:58:28.950Z,2.77
2022-12-25T20:01:05.531Z,2.92
2022-12-25T20:03:34.976Z,2.89
2022-12-25T20:06:06.244Z,2.88
2022-12-25T20:08:33.873Z,2.81
2022-12-25T20:11:00.839Z,2.65
2022-12-25T20:13:27.693Z,2.57
2022-12-25T20:16:00.434Z,2.47
2022-12-25T20:18:27.974Z,2.51
2022-12-25T20:21:21.786Z,2.44
2022-12-25T20:23:51.203Z,2.51
2022-12-25T20:26:20.129Z,2.53
2022-12-25T20:28:47.515Z,2.58
2022-12-25T20:31:19.029Z,2.66
2022-12-25T20:33:46.353Z,2.64
2022-12-25T20:36:13.439Z,2.67
2022-12-25T20:38:40.812Z,2.54
2022-12-25T20:41:29.969Z,2.59
2022-12-25T20:43:57.616Z,2.47
2022-12-25T20:46:25.780Z,2.41
2022-12-25T20:48:53.213Z,2.30
2022-12-25T20:51:23.275Z,2.28
2022-12-25T20:53:53.641Z,2.25
2022-12-25T20:56:24.757Z,2.23
2022-12-25T20:58:59.745Z,2.33
2022-12-25T21:01:28.538Z,2.26
2022-12-25T21:03:55.685Z,2.29
2022-12-25T21:06:23.485Z,2.38
2022-12-25T21:08:50.809Z,2.44
2022-12-25T21:11:17.923Z,2.36
2022-12-25T21:13:45.558Z,2.31
2022-12-25T21:16:15.687Z,2.26
2022-12-25T21:18:42.775Z,1.83
2022-12-25T21:21:11.182Z,1.89
2022-12-25T21:23:39.527Z,1.96
2022-12-25T21:26:32.848Z,2.19
2022-12-25T21:29:02.193Z,2.24
2022-12-25T21:31:29.984Z,2.22
2022-12-25T21:33:57.377Z,2.22
2022-12-25T21:36:32.548Z,2.37
2022-12-25T21:39:06.455Z,2.44
2022-12-25T21:41:35.753Z,2.64
2022-12-25T21:44:03.076Z,2.72
2022-12-25T21:46:30.762Z,2.74
2022-12-25T21:49:06.809Z,2.69
2022-12-25T21:51:34.648Z,2.65
2022-12-25T21:54:02.262Z,2.63
2022-12-25T21:56:39.848Z,2.67
2022-12-25T21:59:12.157Z,2.64
2022-12-25T22:01:39.133Z,2.62
2022-12-25T22:04:08.465Z,2.49
2022-12-25T22:06:35.879Z,2.46
2022-12-25T22:09:05.113Z,2.32
2022-12-25T22:11:35.331Z,2.18
2022-12-25T22:14:02.338Z,2.26
2022-12-25T22:16:29.273Z,2.33
2022-12-25T22:18:56.272Z,2.37
2022-12-25T22:21:23.459Z,2.14
2022-12-25T22:23:50.322Z,1.87
2022-12-25T22:26:20.770Z,1.97
2022-12-25T22:28:47.999Z,1.97
2022-12-25T22:31:15.084Z,1.59
2022-12-25T22:33:41.991Z,1.34
2022-12-25T22:36:09.587Z,1.12
2022-12-25T22:38:36.375Z,1.25
2022-12-25T22:41:06.612Z,1.60
2022-12-25T22:44:06.813Z,1.92
2022-12-25T22:46:20.611Z,2.16
2022-12-25T22:48:47.766Z,2.24
2022-12-25T22:51:14.780Z,2.33
2022-12-25T22:53:41.977Z,2.34
2022-12-25T22:56:09.614Z,2.48
2022-12-25T22:58:36.937Z,2.59
2022-12-25T23:01:04.542Z,2.66
2022-12-25T23:03:31.460Z,2.66
2022-12-25T23:05:58.443Z,2.74
2022-12-25T23:08:25.621Z,2.75
2022-12-25T23:10:52.881Z,2.78
2022-12-25T23:13:19.925Z,2.54
2022-12-25T23:15:46.989Z,2.63
2022-12-25T23:18:14.084Z,2.63
2022-12-25T23:20:41.185Z,2.66
2022-12-25T23:23:14.609Z,2.72
2022-12-25T23:25:41.833Z,2.62
2022-12-25T23:28:08.790Z,2.61
2022-12-25T23:30:38.778Z,2.70
2022-12-25T23:33:05.953Z,2.34
2022-12-25T23:35:33.001Z,1.80
2022-12-25T23:37:59.866Z,1.34
2022-12-25T23:40:26.802Z,0.98
2022-12-25T23:42:54.017Z,0.89
2022-12-25T23:45:20.986Z,1.07
2022-12-25T23:47:48.010Z,1.38
2022-12-25T23:50:15.029Z,1.63
2022-12-25T23:52:42.032Z,1.80
2022-12-25T23:55:09.368Z,1.92
2022-12-25T23:57:36.364Z,1.96
